Time;durP1;ratioP1;P1;durP2;ratioP2;P2;SDS_P1;SDS_P2;PMS_P1;PMS_P2;Temp;Humidity;BMP_temperature;BMP_pressure;BME280_temperature;BME280_humidity;BME280_pressure;Samples;Min_cycle;Max_cycle;Signal;HPM_P1;HPM_P2
2021/11/15 00:01:43;;;;;;;29.52;16.45;;;;;;;11.75;65.41;102862.31;5043807;28;20086;-71
2021/11/15 00:04:16;;;;;;;31.20;16.77;;;;;;;11.82;65.50;102860.84;5047283;28;20471;-71
2021/11/15 00:06:42;;;;;;;32.65;17.63;;;;;;;11.76;65.74;102859.78;5057540;28;20044;-70
2021/11/15 00:09:08;;;;;;;33.15;17.13;;;;;;;11.79;65.44;102859.88;5061978;28;20473;-71
2021/11/15 00:11:34;;;;;;;30.52;16.73;;;;;;;11.83;65.05;102857.41;5052819;28;20043;-71
2021/11/15 00:13:59;;;;;;;32.55;17.15;;;;;;;11.74;65.01;102850.97;5045839;28;20043;-71
2021/11/15 00:16:25;;;;;;;31.55;17.00;;;;;;;11.65;65.15;102852.28;5049214;28;20109;-71
2021/11/15 00:18:51;;;;;;;33.15;18.10;;;;;;;11.69;65.17;102860.31;5037760;28;20066;-70
2021/11/15 00:21:16;;;;;;;31.35;17.27;;;;;;;11.76;65.44;102858.88;5045958;28;20047;-71
2021/11/15 00:23:41;;;;;;;32.13;17.38;;;;;;;11.78;65.41;102855.47;5047946;28;20051;-71
2021/11/15 00:26:07;;;;;;;35.15;16.80;;;;;;;11.79;65.86;102854.66;5046373;28;20098;-71
2021/11/15 00:28:32;;;;;;;31.73;17.25;;;;;;;11.78;65.69;102858.09;5061513;28;20051;-71
2021/11/15 00:30:58;;;;;;;33.95;16.98;;;;;;;11.78;65.45;102858.09;5035346;28;20320;-72
2021/11/15 00:33:23;;;;;;;35.83;18.42;;;;;;;11.78;65.46;102857.22;5054159;28;20566;-71
2021/11/15 00:35:48;;;;;;;33.58;16.77;;;;;;;11.77;65.83;102858.06;5047176;28;20089;-71
2021/11/15 00:38:14;;;;;;;34.97;17.77;;;;;;;11.76;65.00;102858.88;5052569;28;20067;-71
2021/11/15 00:40:40;;;;;;;34.08;17.63;;;;;;;11.72;65.24;102852.59;5050834;28;20071;-71
2021/11/15 00:43:07;;;;;;;32.03;17.50;;;;;;;11.71;65.48;102853.41;5035814;28;20066;-71
2021/11/15 00:45:34;;;;;;;35.75;17.77;;;;;;;11.74;65.41;102852.69;5049733;28;20087;-71
2021/11/15 00:48:00;;;;;;;31.88;17.08;;;;;;;11.76;66.17;102851.06;5035748;28;20072;-71
2021/11/15 00:50:25;;;;;;;34.63;17.98;;;;;;;11.75;65.84;102844.94;5040289;28;20032;-72
2021/11/15 00:52:51;;;;;;;33.83;17.95;;;;;;;11.72;65.60;102841.25;5047224;27;20064;-71
2021/11/15 00:55:17;;;;;;;32.33;17.40;;;;;;;11.69;65.56;102842.03;5055375;28;20123;-71
2021/11/15 00:57:43;;;;;;;33.47;17.15;;;;;;;11.74;65.76;102837.91;5049590;28;20044;-70
2021/11/15 01:00:12;;;;;;;33.38;17.90;;;;;;;11.64;65.78;102842.69;5049031;28;20366;-71
2021/11/15 01:02:38;;;;;;;30.85;16.40;;;;;;;11.65;65.75;102845.34;5045231;28;20814;-73
2021/11/15 01:05:04;;;;;;;32.83;17.33;;;;;;;11.69;65.47;102841.13;5035511;28;20571;-71
2021/11/15 01:07:29;;;;;;;34.25;16.98;;;;;;;11.68;65.48;102834.13;5042068;28;20504;-71
2021/11/15 01:09:55;;;;;;;31.98;17.27;;;;;;;11.68;65.88;102837.63;5062790;28;20032;-71
2021/11/15 01:12:20;;;;;;;30.17;16.27;;;;;;;11.67;65.91;102848.00;5043756;28;20079;-71
2021/11/15 01:14:46;;;;;;;30.15;15.70;;;;;;;11.68;64.55;102839.34;5056117;28;20106;-70
2021/11/15 01:17:11;;;;;;;29.90;16.50;;;;;;;11.68;64.51;102842.88;5038328;28;20511;-71
2021/11/15 01:19:37;;;;;;;29.73;15.98;;;;;;;11.69;64.74;102841.13;5052176;28;20051;-71
2021/11/15 01:22:03;;;;;;;28.30;15.77;;;;;;;11.62;66.78;102837.38;5041475;28;20045;-71
2021/11/15 01:24:28;;;;;;;30.42;15.63;;;;;;;11.62;64.96;102837.38;5050270;28;20047;-71
2021/11/15 01:26:54;;;;;;;30.70;15.60;;;;;;;11.65;64.86;102839.22;5029771;28;20048;-71
2021/11/15 01:29:19;;;;;;;29.98;15.57;;;;;;;11.67;64.59;102834.94;5049541;28;20477;-71
2021/11/15 01:31:45;;;;;;;28.48;15.63;;;;;;;11.61;64.59;102832.09;5042628;28;20931;-71
2021/11/15 01:34:10;;;;;;;27.67;15.38;;;;;;;11.65;64.53;102828.75;5043533;28;20503;-71
2021/11/15 01:36:35;;;;;;;28.73;15.95;;;;;;;11.61;65.95;102827.75;5054509;28;20044;-71
2021/11/15 01:39:02;;;;;;;28.02;15.40;;;;;;;11.62;64.26;102833.88;5035877;28;20052;-70
2021/11/15 01:41:27;;;;;;;25.02;14.68;;;;;;;11.66;64.56;102825.31;5043350;28;20040;-71
2021/11/15 01:43:53;;;;;;;26.08;14.77;;;;;;;11.63;64.34;102827.84;5045193;28;20055;-70
2021/11/15 01:46:18;;;;;;;26.23;14.75;;;;;;;11.64;64.10;102824.41;5042872;28;20112;-70
2021/11/15 01:48:44;;;;;;;26.10;14.70;;;;;;;11.64;63.87;102819.16;5026981;28;20708;-70
2021/11/15 01:51:10;;;;;;;26.95;15.23;;;;;;;11.61;63.94;102826.88;5040212;28;20080;-71
2021/11/15 01:53:36;;;;;;;25.45;14.32;;;;;;;11.49;63.18;102823.75;5051295;28;20072;-72
2021/11/15 01:56:03;;;;;;;24.65;13.63;;;;;;;11.58;63.67;102830.28;5040433;28;20074;-71
2021/11/15 01:58:28;;;;;;;25.67;14.57;;;;;;;11.60;62.94;102828.59;5047484;28;20303;-71
2021/11/15 02:00:58;;;;;;;24.65;14.07;;;;;;;11.63;63.66;102826.13;5022861;28;20052;-70
2021/11/15 02:03:26;;;;;;;25.52;14.48;;;;;;;11.67;63.82;102834.94;5041840;28;20047;-73
2021/11/15 02:05:52;;;;;;;26.13;14.50;;;;;;;11.63;63.11;102827.84;5043404;28;20460;-71
2021/11/15 02:08:18;;;;;;;27.90;14.68;;;;;;;11.57;63.86;102827.59;5045085;28;20036;-71
2021/11/15 02:10:44;;;;;;;25.45;14.93;;;;;;;11.59;63.36;102828.50;5039866;28;20047;-72
2021/11/15 02:13:13;;;;;;;25.15;14.20;;;;;;;11.60;63.86;102830.31;5038301;28;20040;-71
2021/11/15 02:15:38;;;;;;;26.50;15.05;;;;;;;11.45;63.81;102827.09;5043375;28;20064;-70
2021/11/15 02:18:04;;;;;;;26.10;14.55;;;;;;;11.56;63.84;102825.81;5049716;28;20136;-70
2021/11/15 02:20:50;;;;;;;26.55;14.30;;;;;;;11.59;63.95;102825.91;5052660;28;20040;-71
2021/11/15 02:23:17;;;;;;;28.77;14.95;;;;;;;11.57;64.30;102828.47;5061766;28;20059;-70
2021/11/15 02:25:45;;;;;;;28.02;14.35;;;;;;;11.59;65.45;102832.03;5044186;28;20090;-71
2021/11/15 02:28:11;;;;;;;25.75;14.88;;;;;;;11.57;64.64;102828.47;5048013;28;20044;-71
2021/11/15 02:30:36;;;;;;;26.70;14.25;;;;;;;11.55;63.42;102831.84;5045540;28;20048;-71
2021/11/15 02:33:02;;;;;;;28.02;15.15;;;;;;;11.56;64.25;102831.03;5040508;28;20105;-70
2021/11/15 02:35:28;;;;;;;27.38;14.65;;;;;;;11.60;64.82;102833.81;5045210;28;20036;-70
2021/11/15 02:37:53;;;;;;;28.75;14.77;;;;;;;11.56;64.51;102831.91;5042808;28;20050;-70
2021/11/15 02:40:21;;;;;;;30.65;14.98;;;;;;;11.55;63.98;102824.00;5050774;28;20401;-72
2021/11/15 02:42:47;;;;;;;26.63;14.50;;;;;;;11.54;64.22;102825.72;5042952;28;20443;-71
2021/11/15 02:45:14;;;;;;;27.02;14.55;;;;;;;11.54;64.26;102819.63;5043721;28;20052;-71
2021/11/15 02:47:40;;;;;;;29.73;14.88;;;;;;;11.49;64.13;102819.44;5045357;28;20055;-71
2021/11/15 02:50:07;;;;;;;27.67;14.50;;;;;;;11.53;64.54;102817.81;5047132;28;20071;-71
2021/11/15 02:52:32;;;;;;;28.95;14.73;;;;;;;11.50;64.26;102815.09;5044925;28;20624;-71
2021/11/15 02:54:59;;;;;;;27.00;14.32;;;;;;;11.45;64.08;102814.94;5034054;28;20123;-71
2021/11/15 02:57:25;;;;;;;27.05;14.52;;;;;;;11.50;63.72;102817.72;5039891;28;20345;-72
2021/11/15 02:59:51;;;;;;;27.40;14.63;;;;;;;11.43;63.66;102813.97;5045456;28;20963;-71
2021/11/15 03:02:16;;;;;;;25.55;13.80;;;;;;;11.53;63.63;102812.59;5052091;28;20040;-71
2021/11/15 03:04:45;;;;;;;24.13;13.90;;;;;;;11.46;63.68;102816.72;5040484;28;20132;-73
2021/11/15 03:07:10;;;;;;;26.45;14.95;;;;;;;11.49;64.24;102813.31;5036173;28;20571;-71
2021/11/15 03:09:39;;;;;;;28.60;15.18;;;;;;;11.49;64.16;102814.22;5047543;28;20063;-71
2021/11/15 03:12:05;;;;;;;27.27;14.95;;;;;;;11.34;64.00;102816.22;5039612;28;20094;-72
2021/11/15 03:14:30;;;;;;;29.40;15.80;;;;;;;11.42;64.22;102814.78;5064753;28;20044;-70
2021/11/15 03:16:56;;;;;;;30.75;15.15;;;;;;;11.35;64.47;102812.75;5033650;28;20143;-69
2021/11/15 03:19:21;;;;;;;27.27;14.85;;;;;;;11.45;64.54;102816.66;5043250;28;20042;-71
2021/11/15 03:21:47;;;;;;;25.58;14.80;;;;;;;11.46;65.25;102816.72;5034538;28;20032;-71
2021/11/15 03:24:12;;;;;;;27.85;15.65;;;;;;;11.39;64.45;102819.91;5045835;28;20068;-71
2021/11/15 03:26:37;;;;;;;27.85;15.07;;;;;;;11.36;64.74;102818.03;5051885;28;20036;-72
2021/11/15 03:29:03;;;;;;;27.52;15.18;;;;;;;11.42;64.37;102814.78;5039010;28;20124;-72
2021/11/15 03:31:33;;;;;;;27.50;14.65;;;;;;;11.31;64.45;102809.13;5058275;28;20064;-70
2021/11/15 03:34:04;;;;;;;27.23;15.05;;;;;;;11.32;64.27;102812.63;5042790;28;21076;-70
2021/11/15 03:36:29;;;;;;;25.33;14.60;;;;;;;11.32;63.99;102808.31;5050186;28;20040;-70
2021/11/15 03:38:56;;;;;;;27.10;15.23;;;;;;;11.20;64.40;102815.63;5043919;28;20051;-71
2021/11/15 03:41:22;;;;;;;27.50;15.07;;;;;;;11.36;63.99;102818.03;5046011;28;20053;-72
2021/11/15 03:43:47;;;;;;;27.88;15.13;;;;;;;11.32;64.50;102818.75;5050653;28;20055;-71
2021/11/15 03:46:14;;;;;;;26.88;15.27;;;;;;;11.32;64.17;102816.16;5049899;28;20060;-70
2021/11/15 03:48:42;;;;;;;27.50;14.48;;;;;;;11.39;64.57;102815.56;5049830;28;20055;-71
2021/11/15 03:51:07;;;;;;;26.85;14.32;;;;;;;11.26;64.58;102815.00;5050044;28;20500;-71
2021/11/15 03:53:36;;;;;;;27.13;14.93;;;;;;;11.32;65.17;102818.75;5047562;28;20043;-71
2021/11/15 03:56:07;;;;;;;25.38;13.88;;;;;;;11.30;64.79;102807.34;5049330;28;20067;-71
2021/11/15 03:58:33;;;;;;;26.42;14.07;;;;;;;11.27;64.07;102820.28;5046701;28;20059;-70
2021/11/15 04:00:58;;;;;;;26.98;14.18;;;;;;;11.25;64.26;102826.25;5041819;28;20461;-70
2021/11/15 04:03:34;;;;;;;28.73;13.77;;;;;;;11.25;64.66;102816.72;5042802;28;20769;-72
2021/11/15 04:06:14;;;;;;;25.38;13.27;;;;;;;11.16;63.70;102816.31;5054009;28;20119;-72
2021/11/15 04:08:40;;;;;;;26.13;13.18;;;;;;;11.23;63.77;102810.53;5053471;28;20134;-72
2021/11/15 04:11:07;;;;;;;23.88;13.35;;;;;;;11.25;63.62;102814.09;5040351;28;20070;-71
2021/11/15 04:13:37;;;;;;;25.20;13.43;;;;;;;11.25;64.26;102818.44;5053100;28;20040;-71
2021/11/15 04:16:11;;;;;;;26.38;13.90;;;;;;;11.10;64.24;102823.03;5048911;28;20121;-71
2021/11/15 04:18:40;;;;;;;25.30;13.05;;;;;;;11.17;64.80;102823.31;5049822;28;20751;-71
2021/11/15 04:21:06;;;;;;;26.38;13.63;;;;;;;11.18;64.18;102829.44;5044449;28;20097;-71
2021/11/15 04:23:32;;;;;;;29.90;13.98;;;;;;;11.26;63.99;102822.81;5047679;28;20044;-72
2021/11/15 04:25:58;;;;;;;27.73;13.88;;;;;;;11.24;64.15;102819.25;5054398;28;20595;-70
2021/11/15 04:28:23;;;;;;;25.42;13.88;;;;;;;11.08;64.56;102815.13;5048536;28;20055;-70
2021/11/15 04:30:48;;;;;;;27.48;14.30;;;;;;;11.26;64.63;102818.50;5037661;28;20044;-71
2021/11/15 04:33:15;;;;;;;26.65;13.88;;;;;;;11.24;65.59;102820.16;5052069;28;20145;-71
2021/11/15 04:35:40;;;;;;;29.70;14.25;;;;;;;11.22;65.13;102818.31;5059155;28;20052;-71
2021/11/15 04:38:07;;;;;;;29.92;14.45;;;;;;;11.16;65.21;102818.91;5046698;28;20047;-70
2021/11/15 04:40:33;;;;;;;27.05;13.63;;;;;;;11.22;64.69;102821.78;5053962;28;20673;-71
2021/11/15 04:42:59;;;;;;;29.85;14.70;;;;;;;11.23;65.13;102814.84;5034671;28;20063;-71
2021/11/15 04:45:24;;;;;;;27.17;13.98;;;;;;;11.26;65.88;102815.88;5052042;28;20173;-71
2021/11/15 04:47:50;;;;;;;30.40;14.63;;;;;;;11.24;64.82;102812.31;5050508;28;20048;-72
2021/11/15 04:50:16;;;;;;;29.50;14.38;;;;;;;11.25;65.64;102813.22;5043501;28;20044;-70
2021/11/15 04:52:41;;;;;;;31.55;14.13;;;;;;;11.23;65.81;102814.84;5044350;28;20786;-71
2021/11/15 04:55:10;;;;;;;29.20;14.40;;;;;;;11.24;66.27;102816.63;5039849;28;20433;-71
2021/11/15 04:57:37;;;;;;;30.95;14.00;;;;;;;11.28;66.21;102826.41;5049389;28;20044;-71
2021/11/15 05:00:12;;;;;;;30.15;14.52;;;;;;;11.22;66.62;102829.63;5045353;28;20059;-71
2021/11/15 05:02:37;;;;;;;31.92;15.15;;;;;;;11.09;66.96;102829.97;5048573;28;20504;-71
2021/11/15 05:05:03;;;;;;;30.67;14.77;;;;;;;11.22;67.05;102829.63;5041063;28;20051;-71
2021/11/15 05:07:29;;;;;;;32.10;14.98;;;;;;;11.21;67.14;102825.25;5043279;28;20106;-71
2021/11/15 05:09:54;;;;;;;29.73;14.43;;;;;;;11.21;67.41;102833.09;5046065;28;21461;-70
2021/11/15 05:12:20;;;;;;;26.35;13.48;;;;;;;11.29;67.14;102828.16;5047133;28;20071;-71
2021/11/15 05:14:45;;;;;;;30.25;13.55;;;;;;;11.14;67.39;102825.81;5041648;28;20075;-71
2021/11/15 05:17:11;;;;;;;27.05;13.45;;;;;;;11.04;66.77;102820.16;5041213;27;20135;-70
2021/11/15 05:19:36;;;;;;;27.80;13.38;;;;;;;11.20;66.40;102825.19;5048081;28;20043;-71
2021/11/15 05:22:02;;;;;;;27.65;13.32;;;;;;;11.11;66.80;102822.16;5046860;28;20070;-71
2021/11/15 05:24:27;;;;;;;28.63;13.60;;;;;;;11.08;66.75;102819.44;5045756;28;20036;-71
2021/11/15 05:26:53;;;;;;;28.40;13.52;;;;;;;11.08;67.13;102816.84;5033111;28;20040;-70
2021/11/15 05:29:18;;;;;;;26.88;13.13;;;;;;;11.05;67.15;102822.81;5043341;28;20439;-71
2021/11/15 05:31:44;;;;;;;27.00;12.45;;;;;;;11.11;66.48;102824.78;5048683;28;20071;-71
2021/11/15 05:34:09;;;;;;;24.52;12.35;;;;;;;11.02;66.75;102832.25;5040754;28;20048;-71
2021/11/15 05:36:35;;;;;;;23.35;11.98;;;;;;;10.95;66.22;102828.47;5047195;28;20036;-70
2021/11/15 05:39:00;;;;;;;24.25;12.52;;;;;;;10.98;66.62;102829.47;5031658;28;20766;-71
2021/11/15 05:41:26;;;;;;;22.65;12.05;;;;;;;10.98;65.82;102832.09;5046720;28;20040;-71
2021/11/15 05:43:51;;;;;;;22.83;12.00;;;;;;;10.99;65.58;102839.09;5050364;28;20165;-71
2021/11/15 05:46:16;;;;;;;23.45;12.25;;;;;;;10.92;66.11;102830.94;5051261;28;20083;-72
2021/11/15 05:48:42;;;;;;;23.63;11.25;;;;;;;10.98;65.75;102841.63;5039340;28;20036;-71
2021/11/15 05:51:07;;;;;;;24.05;11.88;;;;;;;10.99;65.85;102833.88;5048682;28;20070;-70
2021/11/15 05:53:35;;;;;;;23.42;12.07;;;;;;;10.94;65.67;102842.34;5036600;28;20033;-71
2021/11/15 05:56:01;;;;;;;22.80;11.90;;;;;;;10.92;66.22;102831.84;5049263;28;20043;-71
2021/11/15 05:58:27;;;;;;;24.73;12.57;;;;;;;10.92;65.70;102836.16;5050500;28;20039;-72
2021/11/15 06:00:52;;;;;;;21.48;11.82;;;;;;;10.85;65.82;102839.34;5034630;28;20043;-70
2021/11/15 06:03:20;;;;;;;21.23;12.00;;;;;;;10.89;65.82;102839.53;5044085;28;20145;-72
2021/11/15 06:05:46;;;;;;;25.48;12.57;;;;;;;10.90;65.76;102840.44;5045283;28;20639;-70
2021/11/15 06:08:11;;;;;;;23.45;11.80;;;;;;;10.95;65.65;102847.63;5040607;28;20529;-71
2021/11/15 06:10:36;;;;;;;23.92;12.55;;;;;;;10.85;66.44;102844.56;5048603;28;20036;-71
2021/11/15 06:13:05;;;;;;;24.05;12.73;;;;;;;10.90;66.54;102840.44;5038173;28;20043;-70
2021/11/15 06:15:31;;;;;;;26.50;12.40;;;;;;;10.92;66.35;102843.97;5045757;28;20047;-71
2021/11/15 06:17:56;;;;;;;25.77;13.02;;;;;;;10.98;66.32;102849.47;5048191;28;20044;-70
2021/11/15 06:20:21;;;;;;;26.33;13.00;;;;;;;10.97;66.74;102847.72;5047117;28;20036;-71
2021/11/15 06:22:47;;;;;;;23.48;12.95;;;;;;;10.82;66.64;102855.75;5035029;28;20044;-70
2021/11/15 06:25:16;;;;;;;26.08;13.30;;;;;;;10.87;66.56;102854.22;5043840;28;20063;-71
2021/11/15 06:27:42;;;;;;;25.75;13.35;;;;;;;10.72;66.64;102856.19;5047466;28;20424;-73
2021/11/15 06:30:09;;;;;;;26.95;13.75;;;;;;;10.79;66.94;102850.41;5048303;28;20052;-71
2021/11/15 06:32:35;;;;;;;24.85;13.05;;;;;;;10.86;66.60;102849.84;5038398;28;20033;-71
2021/11/15 06:35:01;;;;;;;24.48;12.98;;;;;;;10.90;66.20;102859.59;5024633;28;20059;-71
2021/11/15 06:37:26;;;;;;;23.25;11.85;;;;;;;10.78;66.01;102852.94;5046423;28;20044;-70
2021/11/15 06:39:52;;;;;;;22.10;12.25;;;;;;;10.84;65.73;102845.41;5041283;28;20086;-72
2021/11/15 06:42:17;;;;;;;23.60;12.25;;;;;;;10.86;66.35;102855.06;5044683;28;20103;-71
2021/11/15 06:44:43;;;;;;;23.00;12.25;;;;;;;10.80;65.90;102849.56;5045461;28;20086;-71
2021/11/15 06:47:08;;;;;;;22.65;12.57;;;;;;;10.86;65.73;102851.53;5049221;28;20044;-73
2021/11/15 06:49:35;;;;;;;22.10;13.10;;;;;;;10.91;66.09;102848.34;5042240;28;20032;-71
2021/11/15 06:52:00;;;;;;;24.60;12.65;;;;;;;10.87;66.72;102845.50;5048971;28;20136;-71
2021/11/15 06:54:25;;;;;;;26.10;13.20;;;;;;;10.89;66.52;102846.47;5044084;28;20047;-70
2021/11/15 06:56:51;;;;;;;27.30;13.18;;;;;;;10.88;66.55;102840.38;5035492;28;20044;-70
2021/11/15 06:59:17;;;;;;;26.85;13.07;;;;;;;10.90;66.85;102840.44;5058885;28;20515;-71
2021/11/15 07:01:42;;;;;;;25.40;13.98;;;;;;;10.80;66.52;102849.56;5052078;28;20130;-71
2021/11/15 07:04:09;;;;;;;26.08;13.68;;;;;;;10.73;67.17;102857.09;5050904;28;20063;-71
2021/11/15 07:06:35;;;;;;;26.38;13.77;;;;;;;10.70;66.82;102862.16;5052871;28;20150;-70
2021/11/15 07:09:01;;;;;;;28.73;14.43;;;;;;;10.81;67.08;102863.50;5042351;28;20532;-72
2021/11/15 07:11:27;;;;;;;26.38;13.50;;;;;;;10.81;67.03;102876.56;5045319;28;20493;-71
2021/11/15 07:13:52;;;;;;;26.98;14.55;;;;;;;10.81;67.07;102881.78;5052093;28;20409;-71
2021/11/15 07:16:18;;;;;;;26.00;14.38;;;;;;;10.73;67.28;102873.63;5052119;28;20148;-70
2021/11/15 07:18:46;;;;;;;26.40;13.85;;;;;;;10.82;67.31;102883.56;5045832;28;20155;-73
2021/11/15 07:21:12;;;;;;;26.23;14.02;;;;;;;10.88;67.76;102881.22;5052426;27;20036;-70
2021/11/15 07:23:37;;;;;;;24.80;13.77;;;;;;;10.78;67.24;102890.38;5051878;28;20444;-71
2021/11/15 07:26:02;;;;;;;27.17;14.57;;;;;;;10.45;68.05;102889.72;5046708;28;20079;-71
2021/11/15 07:28:28;;;;;;;27.48;14.27;;;;;;;10.67;67.43;102882.91;5054454;28;20055;-71
2021/11/15 07:30:56;;;;;;;26.08;13.60;;;;;;;10.66;67.36;102883.72;5034732;28;20448;-71
2021/11/15 07:33:23;;;;;;;27.45;14.07;;;;;;;10.49;67.12;102885.56;5049605;28;20174;-71
2021/11/15 07:35:49;;;;;;;25.23;13.75;;;;;;;10.69;67.17;102891.66;5066496;28;20040;-71
2021/11/15 07:38:18;;;;;;;25.20;13.98;;;;;;;10.69;67.12;102889.94;5051757;28;20632;-71
2021/11/15 07:40:44;;;;;;;25.63;14.02;;;;;;;10.76;67.33;102896.34;5047393;28;20096;-69
2021/11/15 07:43:09;;;;;;;28.63;14.65;;;;;;;10.79;67.20;102886.94;5042728;28;20489;-71
2021/11/15 07:45:35;;;;;;;26.33;13.95;;;;;;;10.77;67.31;102882.47;5040892;28;20526;-71
2021/11/15 07:48:00;;;;;;;29.83;14.93;;;;;;;10.69;67.30;102882.13;5036644;28;20036;-72
2021/11/15 07:50:25;;;;;;;24.95;13.75;;;;;;;10.66;67.66;102886.31;5053445;28;20922;-73
2021/11/15 07:52:52;;;;;;;26.80;14.18;;;;;;;10.64;67.11;102893.19;5031615;28;20037;-71
2021/11/15 07:55:17;;;;;;;25.52;14.05;;;;;;;10.30;68.15;102888.16;5055379;28;20052;-71
2021/11/15 07:57:43;;;;;;;25.50;14.32;;;;;;;10.45;67.78;102883.63;5050243;28;20048;-70
2021/11/15 08:00:11;;;;;;;27.33;13.88;;;;;;;10.49;67.54;102885.56;5047478;28;20040;-70
2021/11/15 08:02:36;;;;;;;26.60;14.00;;;;;;;10.55;66.97;102880.63;5051495;28;20047;-70
2021/11/15 08:05:02;;;;;;;25.25;13.27;;;;;;;10.66;67.31;102882.00;5042913;28;20243;-70
2021/11/15 08:07:28;;;;;;;24.98;13.10;;;;;;;10.45;67.59;102881.91;5051282;28;20036;-72
2021/11/15 08:09:53;;;;;;;24.20;12.75;;;;;;;10.48;67.46;102884.66;5049226;28;20144;-70
2021/11/15 08:12:20;;;;;;;24.55;13.25;;;;;;;10.30;67.74;102883.81;5038423;28;20055;-72
2021/11/15 08:14:46;;;;;;;23.33;12.77;;;;;;;10.51;67.15;102883.91;5029539;28;21545;-70
2021/11/15 08:17:12;;;;;;;23.98;13.18;;;;;;;10.38;67.25;102882.44;5042818;28;20438;-71
2021/11/15 08:19:39;;;;;;;23.58;12.60;;;;;;;10.57;66.78;102878.97;5047942;28;20117;-70
2021/11/15 08:22:05;;;;;;;24.13;12.27;;;;;;;10.65;66.38;102885.44;5038277;28;20111;-72
2021/11/15 08:24:53;;;;;;;22.02;12.25;;;;;;;10.59;66.48;102877.31;5047987;28;20138;-72
2021/11/15 08:27:19;;;;;;;24.20;12.95;;;;;;;10.43;66.87;102880.94;5037420;28;20590;-71
2021/11/15 08:29:45;;;;;;;22.27;12.35;;;;;;;10.21;67.67;102872.06;5042604;28;20036;-73
2021/11/15 08:32:12;;;;;;;23.05;12.85;;;;;;;10.40;67.46;102879.91;5041972;28;20096;-71
2021/11/15 08:34:37;;;;;;;23.02;12.57;;;;;;;10.42;66.50;102876.56;5046970;28;20032;-71
2021/11/15 08:37:05;;;;;;;23.15;12.27;;;;;;;10.52;66.69;102876.16;5039931;28;23017;-72
2021/11/15 08:39:31;;;;;;;23.48;12.52;;;;;;;10.29;67.25;102879.44;5041463;28;20198;-71
2021/11/15 08:42:00;;;;;;;24.25;12.85;;;;;;;10.41;67.28;102887.81;5043815;28;20115;-71
2021/11/15 08:44:27;;;;;;;22.20;12.13;;;;;;;10.24;67.32;102875.72;5054259;28;20048;-72
2021/11/15 08:46:53;;;;;;;23.08;12.00;;;;;;;10.49;67.06;102867.31;5031560;28;20041;-70
2021/11/15 08:49:26;;;;;;;23.73;12.70;;;;;;;10.35;66.81;102865.78;5043566;28;20109;-72
2021/11/15 08:51:51;;;;;;;26.20;13.43;;;;;;;10.16;67.43;102867.53;5042637;28;20078;-69
2021/11/15 08:54:19;;;;;;;23.70;13.00;;;;;;;10.47;66.98;102868.94;5036156;28;20040;-71
2021/11/15 08:56:50;;;;;;;25.55;13.23;;;;;;;10.56;66.53;102867.63;5012622;28;20689;-71
2021/11/15 08:59:16;;;;;;;25.25;12.93;;;;;;;10.67;66.76;102873.34;5057971;28;20758;-72
2021/11/15 09:01:42;;;;;;;26.60;13.48;;;;;;;10.61;66.98;102864.34;5047367;28;20037;-72
2021/11/15 09:04:09;;;;;;;23.48;13.45;;;;;;;10.59;66.84;102874.72;5039328;28;20042;-72
2021/11/15 09:06:35;;;;;;;27.98;13.10;;;;;;;10.17;68.00;102876.25;5038022;28;20546;-72
2021/11/15 09:09:03;;;;;;;24.58;13.30;;;;;;;10.40;67.77;102873.00;5034582;28;20051;-72
2021/11/15 09:11:29;;;;;;;26.75;12.80;;;;;;;10.51;67.40;102870.84;5046613;28;20537;-72
2021/11/15 09:13:54;;;;;;;25.30;12.98;;;;;;;10.62;67.29;102866.13;5041190;28;20139;-71
2021/11/15 09:16:20;;;;;;;23.08;12.55;;;;;;;10.27;67.96;102877.56;5041851;28;20442;-71
2021/11/15 09:18:45;;;;;;;28.75;13.00;;;;;;;10.30;67.97;102872.50;5036082;28;20044;-71
2021/11/15 09:21:14;;;;;;;27.20;13.38;;;;;;;10.43;67.24;102877.47;5038374;28;20657;-71
2021/11/15 09:23:40;;;;;;;27.02;13.68;;;;;;;10.22;67.77;102866.94;5044348;28;20166;-72
2021/11/15 09:26:07;;;;;;;26.98;14.00;;;;;;;10.38;67.36;102868.50;5041122;28;20050;-71
2021/11/15 09:28:33;;;;;;;26.85;13.70;;;;;;;10.51;67.37;102863.94;5041444;28;20071;-73
2021/11/15 09:30:58;;;;;;;25.92;14.15;;;;;;;10.38;67.48;102863.28;5038951;28;20537;-71
2021/11/15 09:33:24;;;;;;;25.35;13.85;;;;;;;10.39;67.58;102867.69;5041653;28;21663;-71
2021/11/15 09:35:50;;;;;;;27.38;13.88;;;;;;;10.06;68.35;102870.47;5046792;28;20059;-73
2021/11/15 09:38:17;;;;;;;27.42;13.98;;;;;;;10.46;67.60;102862.84;5044429;28;20044;-72
2021/11/15 09:40:43;;;;;;;24.15;13.15;;;;;;;10.65;67.02;102864.56;5031247;28;20043;-71
2021/11/15 09:43:09;;;;;;;26.95;14.02;;;;;;;10.55;67.08;102854.53;5037489;28;20048;-71
2021/11/15 09:45:34;;;;;;;28.02;14.60;;;;;;;10.70;67.44;102859.53;5039801;28;20069;-72
2021/11/15 09:48:00;;;;;;;28.17;13.65;;;;;;;10.65;66.63;102859.34;5040963;28;20097;-72
2021/11/15 09:50:26;;;;;;;26.55;14.40;;;;;;;10.50;67.32;102851.72;5037383;28;20357;-71
2021/11/15 09:52:52;;;;;;;27.92;14.35;;;;;;;10.49;67.29;102855.13;5033249;28;20066;-72
2021/11/15 09:55:18;;;;;;;24.70;13.77;;;;;;;10.65;67.23;102848.00;5044264;28;20108;-72
2021/11/15 09:57:46;;;;;;;26.48;13.80;;;;;;;10.79;67.10;102845.19;5045209;28;20115;-71
2021/11/15 10:00:16;;;;;;;27.33;14.10;;;;;;;10.73;66.67;102849.25;5043578;28;20133;-73
2021/11/15 10:02:42;;;;;;;27.75;14.60;;;;;;;10.67;66.67;102849.88;5036486;28;20405;-71
2021/11/15 10:05:10;;;;;;;27.58;14.38;;;;;;;10.68;66.82;102853.34;5054581;27;20107;-71
2021/11/15 10:07:45;;;;;;;27.70;14.93;;;;;;;10.48;67.39;102862.91;5034702;28;20400;-71
2021/11/15 10:10:37;;;;;;;29.13;14.55;;;;;;;10.55;67.14;102862.38;5044829;28;20412;-71
2021/11/15 10:13:15;;;;;;;25.27;13.35;;;;;;;10.77;66.66;102870.31;5027031;28;20902;-71
2021/11/15 10:15:44;;;;;;;28.38;13.82;;;;;;;10.77;67.25;102865.09;5036874;28;20259;-73
2021/11/15 10:18:12;;;;;;;27.85;14.70;;;;;;;10.63;66.79;102860.97;5051844;28;20536;-72
2021/11/15 10:20:50;;;;;;;27.85;14.93;;;;;;;10.65;66.67;102861.94;5044993;28;20119;-72
2021/11/15 10:23:30;;;;;;;31.45;15.00;;;;;;;10.06;68.27;102852.22;5039760;28;20954;-70
2021/11/15 10:25:59;;;;;;;31.88;14.60;;;;;;;10.31;68.16;102856.00;5043886;28;20654;-72
2021/11/15 10:28:26;;;;;;;29.23;15.25;;;;;;;10.48;67.37;102852.47;5029477;28;20115;-72
2021/11/15 10:30:52;;;;;;;32.42;15.43;;;;;;;10.60;67.43;102852.13;5037977;28;20039;-70
2021/11/15 10:33:18;;;;;;;27.77;14.90;;;;;;;10.63;67.24;102844.44;5036893;28;21211;-71
2021/11/15 10:35:46;;;;;;;30.95;15.02;;;;;;;10.80;67.45;102846.06;5042759;28;20089;-73
2021/11/15 10:38:13;;;;;;;29.50;15.18;;;;;;;10.74;67.34;102851.00;5039307;28;20078;-71
2021/11/15 10:40:38;;;;;;;26.70;14.18;;;;;;;10.64;67.44;102854.94;5036804;28;20044;-71
2021/11/15 10:43:08;;;;;;;27.73;14.35;;;;;;;10.62;66.96;102853.06;5027360;28;20036;-72
2021/11/15 10:45:35;;;;;;;33.10;17.73;;;;;;;10.63;67.41;102852.25;5033715;28;20072;-70
2021/11/15 10:48:03;;;;;;;28.15;15.05;;;;;;;10.68;66.79;102853.34;5043458;28;20040;-72
2021/11/15 10:50:50;;;;;;;27.98;13.98;;;;;;;10.75;66.73;102847.59;5047045;28;20036;-71
2021/11/15 10:53:21;;;;;;;27.02;13.95;;;;;;;10.66;67.19;102855.03;5040149;28;20499;-72
2021/11/15 10:56:05;;;;;;;27.65;14.32;;;;;;;10.75;67.63;102842.38;5041912;28;20039;-72
2021/11/15 10:58:50;;;;;;;27.23;14.13;;;;;;;10.85;66.79;102840.25;5031589;28;20036;-72
2021/11/15 11:01:16;;;;;;;26.63;13.70;;;;;;;10.78;66.96;102837.28;5038876;28;20321;-72
2021/11/15 11:03:42;;;;;;;30.35;13.80;;;;;;;10.83;66.91;102828.84;5031895;28;20035;-72
2021/11/15 11:06:12;;;;;;;24.10;13.93;;;;;;;10.88;66.28;102827.31;5045168;28;20043;-73
2021/11/15 11:08:46;;;;;;;26.27;13.85;;;;;;;10.86;66.81;102821.13;5029947;28;20510;-72